Terminal Aerodrome Forecast
Issued by NWS

Home | Current Version | Previous Version | Text Only | Print | Product List | Glossary On
Versions: 1 2 3 4 5 6 7 8 9 10 11 12 13 14 15 16 17 18 19 20 21 22 23 24 25 26 27 28 29
000
FTUS45 KGJT 271126
TAFCNY
TAF
KCNY 271126Z 2712/2812 00000KT P6SM VCSH OVC015
     FM271300 14004KT P6SM SCT050 BKN080
     FM272100 15005KT P6SM BKN050 OVC080
     FM280000 16005KT P6SM OVC050=

USA.gov is the U.S. government's official web portal to all federal, state and local government web resources and services.